Time;durP1;ratioP1;P1;durP2;ratioP2;P2;SDS_P1;SDS_P2;PMS_P1;PMS_P2;Temp;Humidity;BMP_temperature;BMP_pressure;BME280_temperature;BME280_humidity;BME280_pressure;Samples;Min_cycle;Max_cycle;Signal;HPM_P1;HPM_P2
2023/04/22 00:01:01;;;;;;;1999.90;999.90;;;10.60;99.90;;;;;;5015092;28;20165;-71
2023/04/22 00:03:27;;;;;;;1999.90;999.90;;;10.60;99.90;;;;;;5015274;28;20192;-71
2023/04/22 00:05:53;;;;;;;1999.90;999.90;;;10.60;99.90;;;;;;5015282;28;20270;-71
2023/04/22 00:08:19;;;;;;;1999.90;999.90;;;10.70;99.90;;;;;;5015203;28;20444;-71
2023/04/22 00:10:45;;;;;;;1999.90;999.90;;;10.70;99.90;;;;;;5015146;28;20799;-71
2023/04/22 00:13:10;;;;;;;1999.90;999.90;;;10.80;99.90;;;;;;5015168;28;20197;-71
2023/04/22 00:15:36;;;;;;;1999.90;999.90;;;10.80;99.90;;;;;;5014916;28;20223;-72
2023/04/22 00:18:02;;;;;;;1999.90;999.90;;;10.80;99.90;;;;;;5014879;28;20161;-72
2023/04/22 00:20:28;;;;;;;1999.90;999.90;;;10.80;99.90;;;;;;5014880;28;20264;-72
2023/04/22 00:22:53;;;;;;;1999.90;999.90;;;10.80;99.90;;;;;;5014534;28;20707;-72
2023/04/22 00:25:19;;;;;;;1999.90;999.90;;;10.70;99.90;;;;;;5014769;28;20404;-72
2023/04/22 00:27:45;;;;;;;1999.90;999.90;;;10.80;99.90;;;;;;5014714;28;20209;-72
2023/04/22 00:30:11;;;;;;;1999.90;999.90;;;10.80;99.90;;;;;;5014726;28;20181;-72
2023/04/22 00:32:37;;;;;;;1999.90;999.90;;;10.70;99.90;;;;;;5014491;28;20572;-72
2023/04/22 00:35:03;;;;;;;1999.90;999.90;;;10.50;99.90;;;;;;5014819;28;20499;-71
2023/04/22 00:37:28;;;;;;;1999.90;999.90;;;10.50;99.90;;;;;;5014582;28;20423;-72
2023/04/22 00:39:54;;;;;;;1999.90;999.90;;;10.40;99.90;;;;;;5014543;28;20419;-72
2023/04/22 00:42:20;;;;;;;1999.90;999.90;;;10.40;99.90;;;;;;5014152;28;20178;-72
2023/04/22 00:44:47;;;;;;;1999.90;999.90;;;10.40;99.90;;;;;;5014283;28;20574;-72
2023/04/22 00:47:12;;;;;;;1999.90;999.90;;;10.50;99.90;;;;;;5014267;28;20460;-72
2023/04/22 00:49:38;;;;;;;1999.90;999.90;;;10.50;99.90;;;;;;5014344;28;20408;-72
2023/04/22 00:52:04;;;;;;;1999.90;999.90;;;10.50;99.90;;;;;;5014036;28;20544;-72
2023/04/22 00:54:30;;;;;;;1999.90;999.90;;;10.50;99.90;;;;;;5014341;28;20197;-72
2023/04/22 00:56:57;;;;;;;1999.90;999.90;;;10.40;99.90;;;;;;5014248;28;20168;-71
2023/04/22 00:59:24;;;;;;;1999.90;999.90;;;10.20;99.90;;;;;;5014034;28;20430;-72
2023/04/22 01:01:50;;;;;;;1999.90;999.90;;;10.30;99.90;;;;;;5014077;28;20422;-72
2023/04/22 01:04:17;;;;;;;1999.90;999.90;;;10.30;99.90;;;;;;5014073;28;20449;-72
2023/04/22 01:06:43;;;;;;;1999.90;999.90;;;10.30;99.90;;;;;;5014060;28;20554;-72
2023/04/22 01:09:08;;;;;;;1999.90;999.90;;;10.40;99.90;;;;;;5014143;28;20400;-72
2023/04/22 01:11:35;;;;;;;1999.90;999.90;;;10.40;99.90;;;;;;5013607;28;20466;-71
2023/04/22 01:14:02;;;;;;;1999.90;999.90;;;10.50;99.90;;;;;;5013775;28;20185;-72
2023/04/22 01:16:30;;;;;;;1999.90;999.90;;;10.50;99.90;;;;;;5013809;28;20412;-72
2023/04/22 01:18:55;;;;;;;1999.90;999.90;;;10.50;99.90;;;;;;5013830;28;20446;-72
2023/04/22 01:21:21;;;;;;;1999.90;999.90;;;10.60;99.90;;;;;;5013498;28;20416;-72
2023/04/22 01:23:47;;;;;;;1999.90;999.90;;;10.50;99.90;;;;;;5013637;28;20440;-72
2023/04/22 01:26:13;;;;;;;1999.90;999.90;;;10.50;99.90;;;;;;5013641;28;20224;-72
2023/04/22 01:28:39;;;;;;;1999.90;999.90;;;10.60;99.90;;;;;;5013597;28;20805;-72
2023/04/22 01:31:05;;;;;;;1999.90;999.90;;;10.50;99.90;;;;;;5013308;28;20507;-72
2023/04/22 01:33:30;;;;;;;1999.90;999.90;;;10.60;99.90;;;;;;5013025;28;20290;-72
2023/04/22 01:35:56;;;;;;;1999.90;999.90;;;10.50;99.90;;;;;;5013496;28;20747;-72
2023/04/22 01:38:22;;;;;;;1999.90;999.90;;;10.50;99.90;;;;;;5013438;28;20177;-71
2023/04/22 01:40:48;;;;;;;1999.90;999.90;;;10.60;99.90;;;;;;5013320;28;20578;-72
2023/04/22 01:43:13;;;;;;;1999.90;999.90;;;10.50;99.90;;;;;;5013212;28;20424;-72
2023/04/22 01:45:39;;;;;;;1999.90;999.90;;;10.50;99.90;;;;;;5013225;28;20436;-72
2023/04/22 01:48:08;;;;;;;1999.90;999.90;;;10.50;99.90;;;;;;5013257;28;20173;-72
2023/04/22 01:50:34;;;;;;;1999.90;999.90;;;10.60;99.90;;;;;;5013204;28;20574;-72
2023/04/22 01:52:59;;;;;;;1999.90;999.90;;;10.60;99.90;;;;;;5012914;28;20420;-72
2023/04/22 01:55:25;;;;;;;1999.90;999.90;;;10.60;99.90;;;;;;5013169;28;20544;-72
2023/04/22 01:57:51;;;;;;;1999.90;999.90;;;10.60;99.90;;;;;;5013088;28;20173;-72
2023/04/22 02:00:17;;;;;;;1999.90;999.90;;;10.60;99.90;;;;;;5013016;28;20161;-72
2023/04/22 02:02:42;;;;;;;1999.90;999.90;;;10.60;99.90;;;;;;5012690;28;20490;-72
2023/04/22 02:05:08;;;;;;;1999.90;999.90;;;10.60;99.90;;;;;;5012998;28;20401;-72
2023/04/22 02:07:35;;;;;;;1999.90;999.90;;;10.70;99.90;;;;;;5012877;28;20201;-72
2023/04/22 02:10:01;;;;;;;1999.90;999.90;;;10.60;99.90;;;;;;5012928;28;20409;-72
2023/04/22 02:12:27;;;;;;;1999.90;999.90;;;10.40;99.90;;;;;;5012452;28;20778;-72
2023/04/22 02:14:52;;;;;;;1999.90;999.90;;;10.60;99.90;;;;;;5012822;28;20397;-72
2023/04/22 02:17:18;;;;;;;1999.90;999.90;;;10.60;99.90;;;;;;5012778;28;20204;-72
2023/04/22 02:19:44;;;;;;;1999.90;999.90;;;10.70;99.90;;;;;;5012754;28;20169;-72
2023/04/22 02:22:09;;;;;;;1999.90;999.90;;;10.70;99.90;;;;;;5012430;28;20181;-72
2023/04/22 02:24:35;;;;;;;1999.90;999.90;;;10.70;99.90;;;;;;5012530;28;20189;-72
2023/04/22 02:27:01;;;;;;;1999.90;999.90;;;10.60;99.90;;;;;;5012457;28;20204;-72
2023/04/22 02:29:26;;;;;;;1999.90;999.90;;;10.50;99.90;;;;;;5012555;28;20165;-73
2023/04/22 02:31:52;;;;;;;1999.90;999.90;;;10.60;99.90;;;;;;5012310;28;20172;-72
2023/04/22 02:34:18;;;;;;;1999.90;999.90;;;10.50;99.90;;;;;;5012455;28;20424;-72
2023/04/22 02:36:43;;;;;;;1999.90;999.90;;;10.60;99.90;;;;;;5012485;28;20173;-72
2023/04/22 02:39:09;;;;;;;1999.90;999.90;;;10.60;99.90;;;;;;5012510;28;20358;-72
2023/04/22 02:41:34;;;;;;;1999.90;999.90;;;10.60;99.90;;;;;;5012045;28;20216;-72
2023/04/22 02:44:00;;;;;;;1999.90;999.90;;;10.60;99.90;;;;;;5012096;28;20201;-72
2023/04/22 02:46:26;;;;;;;1999.90;999.90;;;10.60;99.90;;;;;;5011543;28;20544;-72
2023/04/22 02:48:51;;;;;;;1999.90;999.90;;;10.50;99.90;;;;;;5012328;28;20165;-72
2023/04/22 02:51:17;;;;;;;1999.90;999.90;;;10.50;99.90;;;;;;5012004;28;20169;-72
2023/04/22 02:53:43;;;;;;;1999.90;999.90;;;10.50;99.90;;;;;;5012184;28;20184;-72
2023/04/22 02:56:08;;;;;;;1999.90;999.90;;;10.50;99.90;;;;;;5012243;28;20408;-72
2023/04/22 02:58:34;;;;;;;1999.90;999.90;;;10.60;99.90;;;;;;5012196;28;20172;-72
2023/04/22 03:01:00;;;;;;;1999.90;999.90;;;10.40;99.90;;;;;;5011985;28;20178;-71
2023/04/22 03:03:26;;;;;;;1999.90;999.90;;;10.60;99.90;;;;;;5012201;28;20280;-71
2023/04/22 03:05:51;;;;;;;1999.90;999.90;;;10.50;99.90;;;;;;5012068;28;20818;-71
2023/04/22 03:08:18;;;;;;;1999.90;999.90;;;10.40;99.90;;;;;;5012216;28;20170;-72
2023/04/22 03:10:43;;;;;;;1999.90;999.90;;;10.50;99.90;;;;;;5012071;28;20400;-72
2023/04/22 03:13:09;;;;;;;1999.90;999.90;;;10.40;99.90;;;;;;5011728;28;20531;-72
2023/04/22 03:15:34;;;;;;;1999.90;999.90;;;10.40;99.90;;;;;;5012117;28;20166;-72
2023/04/22 03:18:00;;;;;;;1999.90;999.90;;;10.60;99.90;;;;;;5012055;28;20165;-72
2023/04/22 03:20:25;;;;;;;1999.90;999.90;;;10.50;99.90;;;;;;5012067;28;20534;-72
2023/04/22 03:22:51;;;;;;;1999.90;999.90;;;10.40;99.90;;;;;;5011654;28;20215;-72
2023/04/22 03:25:17;;;;;;;1999.90;999.90;;;10.40;99.90;;;;;;5011924;28;20651;-71
2023/04/22 03:27:42;;;;;;;1999.90;999.90;;;10.50;99.90;;;;;;5011879;28;20542;-71
2023/04/22 03:30:08;;;;;;;1999.90;999.90;;;10.50;99.90;;;;;;5011975;28;20172;-71
2023/04/22 03:32:34;;;;;;;1999.90;999.90;;;10.50;99.90;;;;;;5011836;28;20685;-71
2023/04/22 03:35:00;;;;;;;1999.90;999.90;;;10.60;99.90;;;;;;5011957;28;20407;-72
2023/04/22 03:37:27;;;;;;;1999.90;999.90;;;10.70;99.90;;;;;;5011943;28;20222;-72
2023/04/22 03:39:53;;;;;;;1999.90;999.90;;;10.50;99.90;;;;;;5011795;28;20168;-72
2023/04/22 03:42:18;;;;;;;1999.90;999.90;;;10.50;99.90;;;;;;5011504;28;20462;-72
2023/04/22 03:44:44;;;;;;;1999.90;999.90;;;10.50;99.90;;;;;;5011614;28;20701;-72
2023/04/22 03:47:10;;;;;;;1999.90;999.90;;;10.40;99.90;;;;;;5011829;28;20204;-72
2023/04/22 03:49:36;;;;;;;1999.90;999.90;;;10.40;99.90;;;;;;5011856;28;20946;-72
2023/04/22 03:52:01;;;;;;;1999.90;999.90;;;10.40;99.90;;;;;;5011475;28;20240;-72
2023/04/22 03:54:27;;;;;;;1999.90;999.90;;;10.40;99.90;;;;;;5011558;28;20655;-72
2023/04/22 03:56:52;;;;;;;1999.90;999.90;;;10.50;99.90;;;;;;5013242;28;20634;-72
2023/04/22 03:59:18;;;;;;;1999.90;999.90;;;10.50;99.90;;;;;;5015631;28;20252;-71
2023/04/22 04:01:47;;;;;;;1999.90;999.90;;;10.40;99.90;;;;;;5015306;28;20566;-71
2023/04/22 04:04:12;;;;;;;1999.90;999.90;;;10.60;99.90;;;;;;5015310;28;20201;-72
2023/04/22 04:06:38;;;;;;;1999.90;999.90;;;10.60;99.90;;;;;;5015105;28;20447;-72
2023/04/22 04:09:04;;;;;;;1999.90;999.90;;;10.50;99.90;;;;;;5015159;28;20658;-72
2023/04/22 04:11:30;;;;;;;1999.90;999.90;;;10.50;99.90;;;;;;5014946;28;20173;-72
2023/04/22 04:13:55;;;;;;;1999.90;999.90;;;10.50;99.90;;;;;;5014970;28;20919;-72
2023/04/22 04:16:21;;;;;;;1999.90;999.90;;;10.60;99.90;;;;;;5015056;28;20256;-71
2023/04/22 04:18:50;;;;;;;1999.90;999.90;;;10.60;99.90;;;;;;5015009;28;20558;-71
2023/04/22 04:21:16;;;;;;;1999.90;999.90;;;10.50;99.90;;;;;;5014617;28;20173;-71
2023/04/22 04:23:41;;;;;;;1999.90;999.90;;;10.50;99.90;;;;;;5014751;28;20432;-71
2023/04/22 04:26:07;;;;;;;1999.90;999.90;;;10.50;99.90;;;;;;5014767;28;20598;-71
2023/04/22 04:28:34;;;;;;;1999.90;999.90;;;10.50;99.90;;;;;;5014936;28;20173;-71
2023/04/22 04:30:59;;;;;;;1999.90;999.90;;;10.50;99.90;;;;;;5014511;28;20560;-71
2023/04/22 04:33:26;;;;;;;1999.90;999.90;;;10.50;99.90;;;;;;5014645;28;20454;-71
2023/04/22 04:35:52;;;;;;;1999.90;999.90;;;10.60;99.90;;;;;;5014636;28;20185;-71
2023/04/22 04:38:18;;;;;;;1999.90;999.90;;;10.60;99.90;;;;;;5014609;28;20875;-71
2023/04/22 04:40:44;;;;;;;1999.90;999.90;;;10.60;99.90;;;;;;5014671;28;20424;-71
2023/04/22 04:43:11;;;;;;;1999.90;999.90;;;10.60;99.90;;;;;;5014252;28;20192;-71
2023/04/22 04:45:38;;;;;;;1999.90;999.90;;;10.70;99.90;;;;;;5014576;28;20766;-71
2023/04/22 04:48:06;;;;;;;1999.90;999.90;;;10.60;99.90;;;;;;5014480;28;20806;-71
2023/04/22 04:50:31;;;;;;;1999.90;999.90;;;10.60;99.90;;;;;;5014432;28;20775;-71
2023/04/22 04:52:57;;;;;;;1999.90;999.90;;;10.60;99.90;;;;;;5013965;28;20424;-71
2023/04/22 04:55:23;;;;;;;1999.90;999.90;;;10.60;99.90;;;;;;5014298;28;20406;-71
2023/04/22 04:57:48;;;;;;;1999.90;999.90;;;10.70;99.90;;;;;;5014253;28;20582;-72
2023/04/22 05:00:14;;;;;;;1999.90;999.90;;;10.70;99.90;;;;;;5014243;28;20252;-71
2023/04/22 05:02:40;;;;;;;1999.90;999.90;;;10.60;99.90;;;;;;5013863;28;20200;-72
2023/04/22 05:05:06;;;;;;;1999.90;999.90;;;10.60;99.90;;;;;;5014098;28;20779;-72
2023/04/22 05:07:32;;;;;;;1999.90;999.90;;;10.60;99.90;;;;;;5013381;28;20212;-72
2023/04/22 05:09:59;;;;;;;1999.90;999.90;;;10.70;99.90;;;;;;5013581;28;20405;-72
2023/04/22 05:12:25;;;;;;;1999.90;999.90;;;10.70;99.90;;;;;;5013609;28;20224;-72
2023/04/22 05:14:51;;;;;;;1999.90;999.90;;;10.90;99.90;;;;;;5013970;28;20462;-72
2023/04/22 05:17:17;;;;;;;1999.90;999.90;;;10.90;99.90;;;;;;5013875;28;20500;-72
2023/04/22 05:19:43;;;;;;;1999.90;999.90;;;11.00;99.90;;;;;;5013811;28;20498;-72
2023/04/22 05:22:09;;;;;;;1999.90;999.90;;;11.00;99.90;;;;;;5013448;28;20840;-72
2023/04/22 05:24:34;;;;;;;1999.90;999.90;;;11.00;99.90;;;;;;5013635;28;20189;-72
2023/04/22 05:27:00;;;;;;;1999.90;999.90;;;11.00;99.90;;;;;;5013617;28;20272;-72
2023/04/22 05:29:26;;;;;;;1999.90;999.90;;;11.10;99.90;;;;;;5013678;28;20670;-72
2023/04/22 05:31:52;;;;;;;1999.90;999.90;;;11.10;99.90;;;;;;5013356;28;20408;-72
2023/04/22 05:34:18;;;;;;;1999.90;999.90;;;11.20;99.90;;;;;;5013421;28;20483;-72
2023/04/22 05:36:43;;;;;;;1999.90;999.90;;;11.20;99.90;;;;;;5013556;28;20235;-72
2023/04/22 05:39:09;;;;;;;1999.90;999.90;;;11.20;99.90;;;;;;5013384;28;20178;-72
2023/04/22 05:41:35;;;;;;;1999.90;999.90;;;11.20;99.90;;;;;;5013148;28;20200;-72
2023/04/22 05:44:00;;;;;;;1999.90;999.90;;;11.30;99.90;;;;;;5013192;28;20678;-72
2023/04/22 05:46:26;;;;;;;1999.90;999.90;;;11.30;99.90;;;;;;5013232;28;20190;-72
2023/04/22 05:48:53;;;;;;;1999.90;999.90;;;11.40;99.90;;;;;;5013295;28;20620;-72
2023/04/22 05:51:19;;;;;;;1999.90;999.90;;;11.40;99.90;;;;;;4993383;28;20568;-72
2023/04/22 05:53:45;;;;;;;1999.90;999.90;;;11.50;99.90;;;;;;4993601;28;20432;-72
2023/04/22 05:56:10;;;;;;;1999.90;999.90;;;11.60;99.90;;;;;;4993538;28;20177;-72
2023/04/22 05:58:36;;;;;;;1999.90;999.90;;;11.70;99.90;;;;;;4993562;28;20245;-72
2023/04/22 06:01:02;;;;;;;1999.90;999.90;;;11.70;99.90;;;;;;4993096;28;20232;-72
2023/04/22 06:03:28;;;;;;;1999.90;999.90;;;11.90;99.90;;;;;;4993359;28;20434;-72
2023/04/22 06:05:54;;;;;;;1999.90;999.90;;;12.00;99.90;;;;;;4993240;28;20198;-72
2023/04/22 06:08:19;;;;;;;1999.90;999.90;;;12.00;99.90;;;;;;4993307;28;20430;-72
2023/04/22 06:10:45;;;;;;;1999.90;999.90;;;12.10;99.90;;;;;;4993291;28;20207;-72
2023/04/22 06:13:11;;;;;;;1999.90;999.90;;;12.20;99.90;;;;;;4993330;28;20241;-71
2023/04/22 06:15:36;;;;;;;1999.90;999.90;;;12.30;99.90;;;;;;4993248;28;20215;-71
2023/04/22 06:18:02;;;;;;;1999.90;999.90;;;12.40;99.90;;;;;;4993134;28;20255;-71
2023/04/22 06:20:27;;;;;;;1999.90;999.90;;;12.40;99.90;;;;;;4992949;28;20239;-71
2023/04/22 06:22:53;;;;;;;1999.90;999.90;;;12.50;99.90;;;;;;4992727;28;20747;-72
2023/04/22 06:25:19;;;;;;;1999.90;999.90;;;12.50;99.90;;;;;;4993070;28;20533;-72
2023/04/22 06:27:45;;;;;;;1999.90;999.90;;;12.60;99.90;;;;;;4993063;28;20237;-72
2023/04/22 06:30:10;;;;;;;1999.90;999.90;;;12.70;99.90;;;;;;4992994;28;20452;-72
2023/04/22 06:32:36;;;;;;;1999.90;999.90;;;13.10;99.90;;;;;;4992619;28;20255;-71
2023/04/22 06:35:02;;;;;;;1999.90;999.90;;;12.80;99.90;;;;;;4992877;28;20172;-72
2023/04/22 06:37:28;;;;;;;1999.90;999.90;;;12.90;99.90;;;;;;4992802;28;20418;-72
2023/04/22 06:39:53;;;;;;;1999.90;999.90;;;13.00;99.90;;;;;;4992853;28;20177;-72
2023/04/22 06:42:19;;;;;;;1999.90;999.90;;;13.00;99.90;;;;;;4992530;28;20523;-72
2023/04/22 06:44:44;;;;;;;1999.90;999.90;;;13.10;99.90;;;;;;4992688;28;20212;-72
2023/04/22 06:47:10;;;;;;;1999.90;999.90;;;13.20;99.90;;;;;;4992705;28;20193;-72
2023/04/22 06:49:38;;;;;;;1999.90;999.90;;;13.20;99.90;;;;;;4992738;28;20704;-72
2023/04/22 06:52:04;;;;;;;1999.90;999.90;;;13.20;99.90;;;;;;4992325;28;20163;-72
2023/04/22 06:54:30;;;;;;;1999.90;999.90;;;13.20;99.90;;;;;;4992611;28;20521;-72
2023/04/22 06:56:57;;;;;;;1999.90;999.90;;;13.20;99.90;;;;;;4992634;28;20773;-72
2023/04/22 06:59:22;;;;;;;1999.90;999.90;;;13.30;99.90;;;;;;4992637;28;20411;-72
2023/04/22 07:01:48;;;;;;;1999.90;999.90;;;13.40;99.90;;;;;;4992378;28;20417;-72
2023/04/22 07:04:14;;;;;;;1999.90;999.90;;;13.60;99.90;;;;;;4992473;28;20432;-71
2023/04/22 07:06:39;;;;;;;1999.90;999.90;;;13.80;99.90;;;;;;4992562;28;20720;-71
2023/04/22 07:09:05;;;;;;;1999.90;999.90;;;14.00;99.90;;;;;;4992515;28;20242;-71
2023/04/22 07:11:30;;;;;;;1999.90;999.90;;;14.20;99.90;;;;;;4992309;28;20181;-71
2023/04/22 07:13:57;;;;;;;1999.90;999.90;;;14.30;99.90;;;;;;4992317;28;20187;-72
2023/04/22 07:16:22;;;;;;;1999.90;999.90;;;14.40;99.90;;;;;;4992388;28;20202;-71
2023/04/22 07:18:48;;;;;;;1999.90;999.90;;;14.60;99.90;;;;;;4992380;28;20412;-71
2023/04/22 07:21:14;;;;;;;1999.90;999.90;;;14.70;99.90;;;;;;4992111;28;20169;-71
2023/04/22 07:23:39;;;;;;;1999.90;999.90;;;14.80;99.90;;;;;;4992327;28;20225;-71
2023/04/22 07:26:05;;;;;;;1999.90;999.90;;;14.80;99.90;;;;;;4992312;28;20235;-71
2023/04/22 07:28:31;;;;;;;1999.90;999.90;;;14.90;99.90;;;;;;4992306;28;20228;-71
2023/04/22 07:30:56;;;;;;;1999.90;999.90;;;15.10;99.90;;;;;;4992721;28;20244;-72
2023/04/22 07:33:22;;;;;;;1999.90;999.90;;;15.20;99.90;;;;;;5035007;28;20231;-71
2023/04/22 07:35:48;;;;;;;1999.90;999.90;;;15.30;99.90;;;;;;5035444;28;20182;-72
2023/04/22 07:38:13;;;;;;;1999.90;999.90;;;15.40;99.90;;;;;;5035415;28;20166;-71
2023/04/22 07:40:39;;;;;;;1999.90;999.90;;;15.40;99.90;;;;;;5035438;28;20413;-71
2023/04/22 07:43:05;;;;;;;1999.90;999.90;;;15.50;99.90;;;;;;5035107;28;20418;-71
2023/04/22 07:45:31;;;;;;;1999.90;999.90;;;15.70;99.90;;;;;;5035293;28;20193;-71
2023/04/22 07:47:57;;;;;;;1999.90;999.90;;;15.80;99.90;;;;;;5035260;28;20201;-71
2023/04/22 07:50:23;;;;;;;1999.90;999.90;;;15.90;99.90;;;;;;5035267;28;20918;-71
2023/04/22 07:52:48;;;;;;;1999.90;999.90;;;16.00;99.90;;;;;;5034873;28;20426;-71
2023/04/22 07:55:14;;;;;;;1999.90;999.90;;;16.10;99.90;;;;;;5035169;28;20181;-71
2023/04/22 07:57:40;;;;;;;1999.90;999.90;;;16.10;99.90;;;;;;5035131;28;20255;-71
2023/04/22 08:00:07;;;;;;;1999.90;999.90;;;16.10;99.90;;;;;;5035116;28;20165;-72
2023/04/22 08:02:32;;;;;;;1999.90;999.90;;;16.30;99.90;;;;;;5034678;28;20578;-71
2023/04/22 08:04:58;;;;;;;1999.90;999.90;;;16.40;99.90;;;;;;5034886;28;20417;-72
2023/04/22 08:07:24;;;;;;;1999.90;999.90;;;16.60;99.90;;;;;;5034933;28;20695;-72
2023/04/22 08:09:49;;;;;;;1999.90;999.90;;;16.70;99.90;;;;;;5034866;28;20542;-72
2023/04/22 08:12:15;;;;;;;1999.90;999.90;;;16.90;99.90;;;;;;5034583;28;20442;-72
2023/04/22 08:14:41;;;;;;;1999.90;999.90;;;17.10;99.90;;;;;;5034716;28;20193;-72
2023/04/22 08:17:06;;;;;;;1999.90;999.90;;;17.20;99.90;;;;;;5034676;28;20669;-72
2023/04/22 08:19:32;;;;;;;1999.90;999.90;;;17.30;99.90;;;;;;5034788;28;20244;-72
2023/04/22 08:21:57;;;;;;;1999.90;999.90;;;17.20;99.90;;;;;;5034464;28;20180;-72
2023/04/22 08:24:23;;;;;;;1999.90;999.90;;;17.00;99.90;;;;;;5034561;28;20226;-72
2023/04/22 08:26:48;;;;;;;1999.90;999.90;;;17.00;99.90;;;;;;5034608;28;20253;-72
2023/04/22 08:29:14;;;;;;;1999.90;999.90;;;17.00;99.90;;;;;;5034573;28;20543;-72
2023/04/22 08:31:41;;;;;;;1999.90;999.90;;;17.00;99.90;;;;;;5034212;28;20168;-72
2023/04/22 08:34:06;;;;;;;1999.90;999.90;;;17.20;99.90;;;;;;5034380;28;20194;-72
2023/04/22 08:36:32;;;;;;;1999.90;999.90;;;17.30;99.90;;;;;;5034546;28;20410;-72
2023/04/22 08:38:58;;;;;;;1999.90;999.90;;;17.40;99.90;;;;;;5034471;28;20678;-72
2023/04/22 08:41:24;;;;;;;1999.90;999.90;;;17.40;99.90;;;;;;5034484;28;20994;-72
2023/04/22 08:43:51;;;;;;;1999.90;999.90;;;17.50;99.90;;;;;;5034090;28;20219;-72
2023/04/22 08:46:18;;;;;;;1999.90;999.90;;;17.60;99.90;;;;;;5034301;28;20974;-72
2023/04/22 08:48:46;;;;;;;1999.90;999.90;;;17.70;99.90;;;;;;5034599;28;20776;-72
2023/04/22 08:51:15;;;;;;;1999.90;999.90;;;17.70;99.90;;;;;;5034152;28;20411;-71
2023/04/22 08:53:42;;;;;;;1999.90;999.90;;;17.70;99.90;;;;;;5034270;28;20441;-71
2023/04/22 08:56:07;;;;;;;1999.90;999.90;;;17.80;99.90;;;;;;5034524;28;20406;-71
2023/04/22 08:58:33;;;;;;;1999.90;999.90;;;17.80;99.90;;;;;;5034648;28;20419;-72
2023/04/22 09:01:00;;;;;;;1999.90;999.90;;;17.80;99.90;;;;;;5034053;28;20581;-72
2023/04/22 09:03:25;;;;;;;1999.90;999.90;;;17.90;99.90;;;;;;5034308;28;20501;-72
2023/04/22 09:05:53;;;;;;;1999.90;999.90;;;17.90;99.90;;;;;;5034381;28;20416;-72
2023/04/22 09:08:19;;;;;;;1999.90;999.90;;;18.00;99.90;;;;;;5034492;28;20173;-72
2023/04/22 09:10:45;;;;;;;1999.90;999.90;;;18.00;99.90;;;;;;5034690;28;20403;-72
2023/04/22 09:13:13;;;;;;;1999.90;999.90;;;18.20;99.90;;;;;;5034087;28;20428;-72
2023/04/22 09:15:39;;;;;;;1999.90;999.90;;;18.20;99.90;;;;;;5034319;28;20181;-72
2023/04/22 09:18:04;;;;;;;1999.90;999.90;;;18.10;99.90;;;;;;5034225;28;20414;-72
2023/04/22 09:20:30;;;;;;;1999.90;999.90;;;18.10;99.90;;;;;;5033985;28;20218;-72
2023/04/22 09:23:00;;;;;;;1999.90;999.90;;;18.30;99.90;;;;;;5033705;28;20198;-72
2023/04/22 09:25:26;;;;;;;1999.90;999.90;;;18.40;99.90;;;;;;5034135;28;20178;-72
2023/04/22 09:27:57;;;;;;;1999.90;999.90;;;18.70;99.90;;;;;;5033740;28;20502;-72
2023/04/22 09:30:31;;;;;;;1999.90;999.90;;;18.80;99.90;;;;;;5033978;28;20837;-72
2023/04/22 09:33:04;;;;;;;1999.90;999.90;;;18.90;99.90;;;;;;5033780;28;20491;-72
2023/04/22 09:35:41;;;;;;;1999.90;999.90;;;18.90;99.90;;;;;;5034031;28;20791;-72
2023/04/22 09:38:09;;;;;;;1999.90;999.90;;;19.00;99.90;;;;;;5034305;28;20409;-72
2023/04/22 09:40:37;;;;;;;1999.90;999.90;;;19.10;99.90;;;;;;5033721;28;21091;-72
2023/04/22 09:43:06;;;;;;;1999.90;999.90;;;19.20;99.90;;;;;;5032840;28;20426;-72
2023/04/22 09:45:37;;;;;;;1999.90;999.90;;;19.20;99.90;;;;;;5033344;28;20925;-72
2023/04/22 09:48:11;;;;;;;1999.90;999.90;;;19.20;99.90;;;;;;5033544;28;20450;-72
2023/04/22 09:50:38;;;;;;;1999.90;999.90;;;19.30;99.90;;;;;;5033501;28;20492;-72
2023/04/22 09:53:10;;;;;;;1999.90;999.90;;;19.10;99.90;;;;;;5032827;28;20433;-72
2023/04/22 09:55:41;;;;;;;1999.90;999.90;;;19.30;99.90;;;;;;5032802;28;20406;-72
2023/04/22 09:58:08;;;;;;;1999.90;999.90;;;19.40;99.90;;;;;;5033125;28;20434;-72
2023/04/22 10:00:40;;;;;;;1999.90;999.90;;;19.40;99.90;;;;;;5033193;28;20417;-74
2023/04/22 10:03:05;;;;;;;1999.90;999.90;;;19.60;99.90;;;;;;5032468;28;20913;-73
2023/04/22 10:05:36;;;;;;;1999.90;999.90;;;19.80;99.90;;;;;;5032756;28;20411;-73
2023/04/22 10:08:04;;;;;;;1999.90;999.90;;;19.70;99.90;;;;;;5032611;28;20285;-72
2023/04/22 10:10:29;;;;;;;1999.90;999.90;;;19.50;99.90;;;;;;5032621;28;20411;-73
2023/04/22 10:12:55;;;;;;;1999.90;999.90;;;19.30;99.90;;;;;;5032323;28;20777;-72
2023/04/22 10:15:22;;;;;;;1999.90;999.90;;;19.30;99.90;;;;;;5032604;28;20399;-73
2023/04/22 10:17:50;;;;;;;1999.90;999.90;;;19.30;99.90;;;;;;5032468;28;20933;-73
2023/04/22 10:20:18;;;;;;;1999.90;999.90;;;19.20;99.90;;;;;;5032540;28;20774;-73
2023/04/22 10:22:44;;;;;;;1999.90;999.90;;;19.20;99.90;;;;;;5032175;28;20453;-73
2023/04/22 10:25:24;;;;;;;1999.90;999.90;;;19.30;99.90;;;;;;5032525;28;20980;-73
2023/04/22 10:28:07;;;;;;;1999.90;999.90;;;19.60;99.90;;;;;;5032336;28;20453;-73
2023/04/22 10:30:36;;;;;;;1999.90;999.90;;;19.80;99.90;;;;;;5032367;28;20488;-73
2023/04/22 10:33:20;;;;;;;1999.90;999.90;;;19.90;99.90;;;;;;5031955;28;20437;-73
2023/04/22 10:36:08;;;;;;;1999.90;999.90;;;19.80;99.90;;;;;;5019964;28;20441;-72
2023/04/22 10:38:35;;;;;;;1999.90;999.90;;;19.60;99.90;;;;;;4992739;28;20413;-73
2023/04/22 10:41:02;;;;;;;1999.90;999.90;;;19.70;99.90;;;;;;4992618;28;20926;-72
2023/04/22 10:43:48;;;;;;;1999.90;999.90;;;20.00;99.90;;;;;;4992489;28;20780;-73
2023/04/22 10:46:31;;;;;;;1999.90;999.90;;;20.30;99.90;;;;;;4992586;28;20555;-73
2023/04/22 10:48:58;;;;;;;1999.90;999.90;;;20.50;99.90;;;;;;4992671;28;20411;-73
2023/04/22 10:51:40;;;;;;;1999.90;999.90;;;20.40;99.90;;;;;;4992398;28;20764;-73
2023/04/22 10:54:06;;;;;;;1999.90;999.90;;;20.40;99.90;;;;;;4992611;28;20425;-74
2023/04/22 10:56:32;;;;;;;1999.90;999.90;;;20.30;99.90;;;;;;4992607;28;20491;-73
2023/04/22 10:58:58;;;;;;;1999.90;999.90;;;20.40;99.90;;;;;;4992845;28;20518;-73
2023/04/22 11:01:27;;;;;;;1999.90;999.90;;;20.40;99.90;;;;;;4992218;28;20174;-73
2023/04/22 11:03:53;;;;;;;1999.90;999.90;;;20.20;99.90;;;;;;4992441;28;20202;-73
2023/04/22 11:06:21;;;;;;;1999.90;999.90;;;20.20;99.90;;;;;;4991659;28;20535;-74
2023/04/22 11:08:48;;;;;;;1999.90;999.90;;;20.40;99.90;;;;;;4992459;28;20650;-73
2023/04/22 11:11:17;;;;;;;1999.90;999.90;;;20.50;99.90;;;;;;4992262;28;20403;-73
2023/04/22 11:13:43;;;;;;;1999.90;999.90;;;20.70;99.90;;;;;;4992383;28;20425;-72
2023/04/22 11:16:09;;;;;;;1999.90;999.90;;;20.80;99.90;;;;;;4992315;28;21040;-73
2023/04/22 11:18:36;;;;;;;1999.90;999.90;;;20.90;99.90;;;;;;4992467;28;20174;-72
2023/04/22 11:21:07;;;;;;;1999.90;999.90;;;21.00;99.90;;;;;;4992136;28;20439;-72
2023/04/22 11:23:33;;;;;;;1999.90;999.90;;;21.10;99.90;;;;;;4992353;28;20516;-72
2023/04/22 11:26:02;;;;;;;1999.90;999.90;;;21.30;99.90;;;;;;4992317;28;20551;-72
2023/04/22 11:28:28;;;;;;;1999.90;999.90;;;21.40;99.90;;;;;;4992364;28;20180;-72
2023/04/22 11:31:01;;;;;;;1999.90;999.90;;;21.30;99.90;;;;;;4992005;28;20399;-72
2023/04/22 11:33:27;;;;;;;1999.90;999.90;;;21.30;99.90;;;;;;4992215;28;20197;-71
2023/04/22 11:35:54;;;;;;;1999.90;999.90;;;21.50;99.90;;;;;;4992431;28;20404;-73
2023/04/22 11:38:19;;;;;;;1999.90;999.90;;;21.70;99.90;;;;;;4992325;28;20249;-72
2023/04/22 11:40:45;;;;;;;1999.90;999.90;;;21.70;99.90;;;;;;4992234;28;20500;-72
2023/04/22 11:43:11;;;;;;;1999.90;999.90;;;21.90;99.90;;;;;;4991696;28;20203;-72
2023/04/22 11:45:38;;;;;;;1999.90;999.90;;;21.90;99.90;;;;;;4992323;28;20170;-72
2023/04/22 11:48:08;;;;;;;1999.90;999.90;;;21.60;99.90;;;;;;4992246;28;20243;-73
2023/04/22 11:50:36;;;;;;;1999.90;999.90;;;21.40;99.90;;;;;;4992177;28;20845;-72
2023/04/22 11:53:03;;;;;;;1999.90;999.90;;;21.40;99.90;;;;;;4991752;28;20500;-72
2023/04/22 11:55:34;;;;;;;1999.90;999.90;;;21.20;99.90;;;;;;4992112;28;20759;-72